createdAt,value
2018-09-04T00:00:24.211Z,4.70
2018-09-04T00:01:24.388Z,4.20
2018-09-04T00:02:24.359Z,4.60
2018-09-04T00:03:24.262Z,4.40
2018-09-04T00:04:24.255Z,4.50
2018-09-04T00:05:24.281Z,4.10
2018-09-04T00:06:24.381Z,4.60
2018-09-04T00:07:24.304Z,5.40
2018-09-04T00:08:24.320Z,4.80
2018-09-04T00:09:24.443Z,4.50
2018-09-04T00:10:24.329Z,4.40
2018-09-04T00:11:24.446Z,4.30
2018-09-04T00:12:24.345Z,4.60
2018-09-04T00:13:24.372Z,4.60
2018-09-04T00:14:24.376Z,4.70
2018-09-04T00:15:24.383Z,4.60
2018-09-04T00:16:24.470Z,5.70
2018-09-04T00:17:24.423Z,4.60
2018-09-04T00:18:24.544Z,3.90
2018-09-04T00:19:24.432Z,4.50
2018-09-04T00:20:24.450Z,4.30
2018-09-04T00:21:24.736Z,4.40
2018-09-04T00:22:24.596Z,4.60
2018-09-04T00:23:24.606Z,4.00
2018-09-04T00:24:24.529Z,5.10
2018-09-04T00:25:24.502Z,4.70
2018-09-04T00:26:24.737Z,4.20
2018-09-04T00:27:24.569Z,4.10
2018-09-04T00:28:24.666Z,6.30
2018-09-04T00:29:24.596Z,4.00
2018-09-04T00:30:24.559Z,3.50
2018-09-04T00:31:24.675Z,4.30
2018-09-04T00:32:24.596Z,3.30
2018-09-04T00:33:24.603Z,3.60
2018-09-04T00:34:24.655Z,3.70
2018-09-04T00:35:24.742Z,3.70
2018-09-04T00:36:24.901Z,4.20
2018-09-04T00:37:24.765Z,3.30
2018-09-04T00:38:24.775Z,3.60
2018-09-04T00:39:24.658Z,3.40
2018-09-04T00:40:24.661Z,2.90
2018-09-04T00:41:24.834Z,2.70
2018-09-04T00:42:24.693Z,3.40
2018-09-04T00:43:24.714Z,3.20
2018-09-04T00:44:24.728Z,3.20
2018-09-04T00:45:24.851Z,3.70
2018-09-04T00:46:24.893Z,3.00
2018-09-04T00:47:24.766Z,2.80
2018-09-04T00:48:24.772Z,2.40
2018-09-04T00:49:24.769Z,3.20
2018-09-04T00:50:24.783Z,4.60
2018-09-04T00:51:24.956Z,3.10
2018-09-04T00:52:24.855Z,2.70
2018-09-04T00:53:24.839Z,2.60
2018-09-04T00:54:24.833Z,3.10
2018-09-04T00:55:25.093Z,2.40
2018-09-04T00:56:25.011Z,3.10
2018-09-04T00:57:24.865Z,2.90
2018-09-04T00:58:25.003Z,3.20
2018-09-04T00:59:25.021Z,3.20
2018-09-04T01:00:25.024Z,3.60
2018-09-04T01:01:25.016Z,2.70
2018-09-04T01:02:24.928Z,3.00
2018-09-04T01:03:24.925Z,2.70
2018-09-04T01:04:24.946Z,3.00
2018-09-04T01:05:24.961Z,2.70
2018-09-04T01:06:25.244Z,3.00
2018-09-04T01:07:25.104Z,3.00
2018-09-04T01:08:25.116Z,2.70
2018-09-04T01:09:24.997Z,3.40
2018-09-04T01:10:24.998Z,3.00
2018-09-04T01:11:25.304Z,3.20
2018-09-04T01:12:25.034Z,3.20
2018-09-04T01:13:25.045Z,3.00
2018-09-04T01:14:25.054Z,3.00
2018-09-04T01:15:25.065Z,2.60
2018-09-04T01:16:25.352Z,3.60
2018-09-04T01:17:25.098Z,2.60
2018-09-04T01:18:25.114Z,2.30
2018-09-04T01:19:25.124Z,3.60
2018-09-04T01:20:25.253Z,3.30
2018-09-04T01:21:25.249Z,2.60
2018-09-04T01:22:25.272Z,4.70
2018-09-04T01:23:25.196Z,3.80
2018-09-04T01:24:25.183Z,2.80
2018-09-04T01:25:25.197Z,2.70
2018-09-04T01:26:25.342Z,3.60
2018-09-04T01:27:25.199Z,3.10
2018-09-04T01:28:25.218Z,2.60
2018-09-04T01:29:25.344Z,2.50
2018-09-04T01:30:25.236Z,2.40
2018-09-04T01:31:25.337Z,2.90
2018-09-04T01:32:25.246Z,4.10
2018-09-04T01:33:25.390Z,3.40
2018-09-04T01:34:25.428Z,2.80
2018-09-04T01:35:25.413Z,2.80
2018-09-04T01:36:25.448Z,3.90
2018-09-04T01:37:25.308Z,3.50
2018-09-04T01:38:25.307Z,3.50
2018-09-04T01:39:25.457Z,3.20
2018-09-04T01:40:25.471Z,3.60
2018-09-04T01:41:25.579Z,3.30
2018-09-04T01:42:25.366Z,3.40
2018-09-04T01:43:25.369Z,5.70
2018-09-04T01:44:25.515Z,3.60
2018-09-04T01:45:25.520Z,4.00
2018-09-04T01:46:25.494Z,4.50
2018-09-04T01:47:25.544Z,4.40
2018-09-04T01:48:25.424Z,6.70
2018-09-04T01:49:25.437Z,6.80
2018-09-04T01:50:25.460Z,15.70
2018-09-04T01:51:25.507Z,18.80
2018-09-04T01:52:25.596Z,13.90
2018-09-04T01:53:25.476Z,9.80
2018-09-04T01:54:25.492Z,7.60
2018-09-04T01:55:25.780Z,6.50
2018-09-04T01:56:25.642Z,6.70
2018-09-04T01:57:25.532Z,6.20
2018-09-04T01:58:25.538Z,5.50
2018-09-04T01:59:25.674Z,4.80
2018-09-04T02:00:25.612Z,8.00
2018-09-04T02:01:25.561Z,5.30
2018-09-04T02:02:25.805Z,4.80
2018-09-04T02:03:25.593Z,4.80
2018-09-04T02:04:25.605Z,4.60
2018-09-04T02:05:25.622Z,4.30
2018-09-04T02:06:25.742Z,6.70
2018-09-04T02:07:25.637Z,4.60
2018-09-04T02:08:25.805Z,5.00
2018-09-04T02:09:25.647Z,4.80
2018-09-04T02:10:25.649Z,4.70
2018-09-04T02:11:25.679Z,4.50
2018-09-04T02:12:25.807Z,4.70
2018-09-04T02:13:25.971Z,8.20
2018-09-04T02:14:25.833Z,5.30
2018-09-04T02:15:25.711Z,6.80
2018-09-04T02:16:25.723Z,5.30
2018-09-04T02:17:25.860Z,6.30
2018-09-04T02:18:25.930Z,5.80
2018-09-04T02:19:25.747Z,5.50
2018-09-04T02:20:25.780Z,9.30
2018-09-04T02:21:25.775Z,6.40
2018-09-04T02:22:25.911Z,6.50
2018-09-04T02:23:25.853Z,7.10
2018-09-04T02:24:25.941Z,6.70
2018-09-04T02:25:25.822Z,8.10
2018-09-04T02:26:25.843Z,6.50
2018-09-04T02:27:25.998Z,7.40
2018-09-04T02:28:25.850Z,6.10
2018-09-04T02:29:25.853Z,7.10
2018-09-04T02:30:26.000Z,7.20
2018-09-04T02:31:25.891Z,7.00
2018-09-04T02:32:26.123Z,7.30
2018-09-04T02:33:25.919Z,8.20
2018-09-04T02:34:25.919Z,8.30
2018-09-04T02:35:25.930Z,10.90
2018-09-04T02:36:25.936Z,7.90
2018-09-04T02:37:26.100Z,8.10
2018-09-04T02:38:25.958Z,7.40
2018-09-04T02:39:25.970Z,8.00
2018-09-04T02:40:26.100Z,8.30
2018-09-04T02:41:26.117Z,8.40
2018-09-04T02:42:26.100Z,8.80
2018-09-04T02:43:26.134Z,8.90
2018-09-04T02:44:26.034Z,8.80
2018-09-04T02:45:26.048Z,8.60
2018-09-04T02:46:26.171Z,9.50
2018-09-04T02:47:26.278Z,8.20
2018-09-04T02:48:26.187Z,9.70
2018-09-04T02:49:26.084Z,9.90
2018-09-04T02:50:26.083Z,12.70
2018-09-04T02:51:26.095Z,10.70
2018-09-04T02:52:26.376Z,9.90
2018-09-04T02:53:26.123Z,9.90
2018-09-04T02:54:26.253Z,9.40
2018-09-04T02:55:26.264Z,10.10
2018-09-04T02:56:26.149Z,10.80
2018-09-04T02:57:26.380Z,11.90
2018-09-04T02:58:26.156Z,9.60
2018-09-04T02:59:26.171Z,10.20
2018-09-04T03:00:26.314Z,10.60
2018-09-04T03:01:26.325Z,9.90
2018-09-04T03:02:26.296Z,10.60
2018-09-04T03:03:26.222Z,10.40
2018-09-04T03:04:26.417Z,8.50
2018-09-04T03:05:26.238Z,9.10
2018-09-04T03:06:26.248Z,9.10
2018-09-04T03:07:26.383Z,9.70
2018-09-04T03:08:26.281Z,9.10
2018-09-04T03:09:26.509Z,10.10
2018-09-04T03:10:26.416Z,11.50
2018-09-04T03:11:26.301Z,10.00
2018-09-04T03:12:26.438Z,8.90
2018-09-04T03:13:26.377Z,9.30
2018-09-04T03:14:26.602Z,8.80
2018-09-04T03:15:26.343Z,10.40
2018-09-04T03:16:26.482Z,9.10
2018-09-04T03:17:26.361Z,9.10
2018-09-04T03:18:26.382Z,8.80
2018-09-04T03:19:26.482Z,8.80
2018-09-04T03:20:26.403Z,9.20
2018-09-04T03:21:26.398Z,11.00
2018-09-04T03:22:26.419Z,8.80
2018-09-04T03:23:26.549Z,9.40
2018-09-04T03:24:26.538Z,9.30
2018-09-04T03:25:26.440Z,8.00
2018-09-04T03:26:26.457Z,9.50
2018-09-04T03:27:26.595Z,8.00
2018-09-04T03:28:26.478Z,8.20
2018-09-04T03:29:26.758Z,7.40
2018-09-04T03:30:26.623Z,7.40
2018-09-04T03:31:26.517Z,7.50
2018-09-04T03:32:26.524Z,8.80
2018-09-04T03:33:26.538Z,7.80
2018-09-04T03:34:26.629Z,7.70
2018-09-04T03:35:26.538Z,7.00
2018-09-04T03:36:26.552Z,6.80
2018-09-04T03:37:26.568Z,7.10
2018-09-04T03:38:26.705Z,8.40
2018-09-04T03:39:26.640Z,7.50
2018-09-04T03:40:26.596Z,6.30
2018-09-04T03:41:26.735Z,8.60
2018-09-04T03:42:26.738Z,6.00
2018-09-04T03:43:26.664Z,6.40
2018-09-04T03:44:26.926Z,6.30
2018-09-04T03:45:26.649Z,6.20
2018-09-04T03:46:26.680Z,5.70
2018-09-04T03:47:26.685Z,4.90
2018-09-04T03:48:26.683Z,7.60
2018-09-04T03:49:26.696Z,5.20
2018-09-04T03:50:26.976Z,5.50
2018-09-04T03:51:26.834Z,5.90
2018-09-04T03:52:26.749Z,7.50
2018-09-04T03:53:26.734Z,6.00
2018-09-04T03:54:26.741Z,5.00
2018-09-04T03:55:26.881Z,4.90
2018-09-04T03:56:26.935Z,4.70
2018-09-04T03:57:26.895Z,4.50
2018-09-04T03:58:26.800Z,4.70
2018-09-04T03:59:26.797Z,4.90
2018-09-04T04:00:26.926Z,4.70
2018-09-04T04:01:26.858Z,4.90
2018-09-04T04:02:26.975Z,4.70
2018-09-04T04:03:26.843Z,4.40
2018-09-04T04:04:26.844Z,4.60
2018-09-04T04:05:26.862Z,4.40
2018-09-04T04:06:26.865Z,4.30
2018-09-04T04:07:26.874Z,4.80
2018-09-04T04:08:27.076Z,4.80
2018-09-04T04:09:26.900Z,5.20
2018-09-04T04:10:27.030Z,4.60
2018-09-04T04:11:26.955Z,4.90
2018-09-04T04:12:27.054Z,4.40
2018-09-04T04:13:27.213Z,4.80
2018-09-04T04:14:26.957Z,5.10
2018-09-04T04:15:26.971Z,5.30
2018-09-04T04:16:27.096Z,5.00
2018-09-04T04:17:26.976Z,4.20
2018-09-04T04:18:27.040Z,4.90
2018-09-04T04:19:26.992Z,4.90
2018-09-04T04:20:27.136Z,4.70
2018-09-04T04:21:27.116Z,4.60
2018-09-04T04:22:27.041Z,4.70
2018-09-04T04:23:27.041Z,4.80
2018-09-04T04:24:27.049Z,4.10
2018-09-04T04:25:27.057Z,5.00
2018-09-04T04:26:27.392Z,5.10
2018-09-04T04:27:27.083Z,4.50
2018-09-04T04:28:27.106Z,4.70
2018-09-04T04:29:27.225Z,4.50
2018-09-04T04:30:27.238Z,4.40
2018-09-04T04:31:27.277Z,5.70
2018-09-04T04:32:27.256Z,4.70
2018-09-04T04:33:27.146Z,4.90
2018-09-04T04:34:27.157Z,4.70
2018-09-04T04:35:27.171Z,4.50
2018-09-04T04:36:27.453Z,4.70
2018-09-04T04:37:27.193Z,4.70
2018-09-04T04:38:27.197Z,5.80
2018-09-04T04:39:27.325Z,3.70
2018-09-04T04:40:27.343Z,4.10
2018-09-04T04:41:27.312Z,4.30
2018-09-04T04:43:27.243Z,4.20
2018-09-04T04:44:27.390Z,4.10
2018-09-04T04:45:27.272Z,4.10
2018-09-04T04:46:27.445Z,3.70
2018-09-04T04:47:27.297Z,4.00
2018-09-04T04:48:27.296Z,4.20
2018-09-04T04:49:27.470Z,5.10
2018-09-04T04:50:27.309Z,4.00
2018-09-04T04:51:27.332Z,4.30
2018-09-04T04:52:27.469Z,4.60
2018-09-04T04:53:27.345Z,4.00
2018-09-04T04:54:27.471Z,3.80
2018-09-04T04:55:27.497Z,3.40
2018-09-04T04:56:27.382Z,3.70
2018-09-04T04:57:27.377Z,3.80
2018-09-04T04:58:27.394Z,3.50
2018-09-04T04:59:27.463Z,3.50
2018-09-04T05:00:27.622Z,5.30
2018-09-04T05:01:27.703Z,3.20
2018-09-04T05:02:27.441Z,3.20
2018-09-04T05:03:27.576Z,3.30
2018-09-04T05:04:27.458Z,3.90
2018-09-04T05:05:27.467Z,3.80
2018-09-04T05:06:27.760Z,3.50
2018-09-04T05:07:27.491Z,3.60
2018-09-04T05:08:27.496Z,4.00
2018-09-04T05:09:27.638Z,4.10
2018-09-04T05:10:27.527Z,3.80
2018-09-04T05:11:27.742Z,4.00
2018-09-04T05:12:27.549Z,4.00
2018-09-04T05:13:27.677Z,3.60
2018-09-04T05:14:27.598Z,4.10
2018-09-04T05:15:27.563Z,4.60
2018-09-04T05:16:27.723Z,4.20
2018-09-04T05:17:27.722Z,4.60
2018-09-04T05:18:27.633Z,4.30
2018-09-04T05:19:27.739Z,4.30
2018-09-04T05:20:27.750Z,4.20
2018-09-04T05:21:27.813Z,4.40
2018-09-04T05:22:27.769Z,4.10
2018-09-04T05:23:27.653Z,4.50
2018-09-04T05:24:27.815Z,4.10
2018-09-04T05:25:27.679Z,4.00
2018-09-04T05:26:27.808Z,3.80
2018-09-04T05:27:27.700Z,5.80
2018-09-04T05:28:27.745Z,4.30
2018-09-04T05:29:28.055Z,4.20
2018-09-04T05:30:27.719Z,3.80
2018-09-04T05:31:27.732Z,3.80
2018-09-04T05:32:27.867Z,3.60
2018-09-04T05:33:27.751Z,4.00
2018-09-04T05:34:27.916Z,3.70
2018-09-04T05:35:27.901Z,3.80
2018-09-04T05:36:27.916Z,3.50
2018-09-04T05:37:27.924Z,4.10
2018-09-04T05:38:27.928Z,4.00
2018-09-04T05:39:28.041Z,4.50
2018-09-04T05:40:27.950Z,5.80
2018-09-04T05:41:27.964Z,4.10
2018-09-04T05:42:27.844Z,4.80
2018-09-04T05:43:27.983Z,3.80
2018-09-04T05:44:27.922Z,4.00
2018-09-04T05:45:27.872Z,4.10
2018-09-04T05:46:28.012Z,3.70
2018-09-04T05:47:28.024Z,4.30
2018-09-04T05:48:28.034Z,4.60
2018-09-04T05:49:28.169Z,4.00
2018-09-04T05:50:28.056Z,3.30
2018-09-04T05:51:28.065Z,3.80
2018-09-04T05:52:28.074Z,3.90
2018-09-04T05:53:28.078Z,3.80
2018-09-04T05:54:28.194Z,5.20
2018-09-04T05:55:27.977Z,4.30
2018-09-04T05:56:27.991Z,4.20
2018-09-04T05:57:27.992Z,4.30
2018-09-04T05:58:28.010Z,3.90
2018-09-04T05:59:28.293Z,3.40
2018-09-04T06:00:28.029Z,4.10
2018-09-04T06:01:28.049Z,3.90
2018-09-04T06:02:28.062Z,4.60
2018-09-04T06:03:28.061Z,4.30
2018-09-04T06:04:28.105Z,4.20
2018-09-04T06:05:28.196Z,4.00
2018-09-04T06:06:28.257Z,4.20
2018-09-04T06:07:28.222Z,4.30
2018-09-04T06:08:28.100Z,5.00
2018-09-04T06:09:28.237Z,4.60
2018-09-04T06:10:28.133Z,3.90
2018-09-04T06:11:28.284Z,4.70
2018-09-04T06:12:28.150Z,4.50
2018-09-04T06:13:28.157Z,4.60
2018-09-04T06:14:28.219Z,5.30
2018-09-04T06:15:28.179Z,5.30
2018-09-04T06:16:28.330Z,4.30
2018-09-04T06:17:28.226Z,6.00
2018-09-04T06:18:28.200Z,4.10
2018-09-04T06:19:28.341Z,4.30
2018-09-04T06:20:28.223Z,4.80
2018-09-04T06:21:28.406Z,4.50
2018-09-04T06:22:28.247Z,4.80
2018-09-04T06:23:28.384Z,4.90
2018-09-04T06:24:28.268Z,4.40
2018-09-04T06:25:28.363Z,4.70
2018-09-04T06:26:28.288Z,4.80
2018-09-04T06:27:28.292Z,4.40
2018-09-04T06:28:28.427Z,4.30
2018-09-04T06:29:28.389Z,4.10
2018-09-04T06:30:28.429Z,4.70
2018-09-04T06:31:28.329Z,4.80
2018-09-04T06:32:28.348Z,4.30
2018-09-04T06:33:28.364Z,4.60
2018-09-04T06:34:28.487Z,3.80
2018-09-04T06:35:28.436Z,4.70
2018-09-04T06:36:28.446Z,4.10
2018-09-04T06:37:28.496Z,4.00
2018-09-04T06:38:28.407Z,4.80
2018-09-04T06:39:28.436Z,4.10
2018-09-04T06:40:28.424Z,3.80
2018-09-04T06:41:28.429Z,3.80
2018-09-04T06:42:28.554Z,3.70
2018-09-04T06:43:28.450Z,3.70
2018-09-04T06:44:28.463Z,3.70
2018-09-04T06:45:28.471Z,4.30
2018-09-04T06:46:28.544Z,4.10
2018-09-04T06:47:28.653Z,5.30
2018-09-04T06:48:28.526Z,4.00
2018-09-04T06:49:28.642Z,4.60
2018-09-04T06:50:28.651Z,3.90
2018-09-04T06:51:28.661Z,4.40
2018-09-04T06:52:28.582Z,4.40
2018-09-04T06:53:28.614Z,4.20
2018-09-04T06:54:28.698Z,4.30
2018-09-04T06:55:28.707Z,4.10
2018-09-04T06:56:28.584Z,3.80
2018-09-04T06:57:28.726Z,3.60
2018-09-04T06:58:28.760Z,4.00
2018-09-04T06:59:28.749Z,4.10
2018-09-04T07:00:28.628Z,4.20
2018-09-04T07:01:28.637Z,4.20
2018-09-04T07:02:28.652Z,4.50
2018-09-04T07:03:28.767Z,4.40
2018-09-04T07:04:28.685Z,4.30
2018-09-04T07:05:28.684Z,4.60
2018-09-04T07:06:28.821Z,4.60
2018-09-04T07:07:28.746Z,3.70
2018-09-04T07:08:28.943Z,4.10
2018-09-04T07:09:28.853Z,5.30
2018-09-04T07:10:28.859Z,4.90
2018-09-04T07:11:28.758Z,4.40
2018-09-04T07:12:28.753Z,3.80
2018-09-04T07:13:28.994Z,4.50
2018-09-04T07:14:28.908Z,4.00
2018-09-04T07:15:28.788Z,5.40
2018-09-04T07:16:28.805Z,4.20
2018-09-04T07:17:28.936Z,4.20
2018-09-04T07:18:28.874Z,4.50
2018-09-04T07:19:28.830Z,5.20
2018-09-04T07:20:28.841Z,4.70
2018-09-04T07:21:28.842Z,4.00
2018-09-04T07:22:28.988Z,4.10
2018-09-04T07:23:28.964Z,4.20
2018-09-04T07:24:28.891Z,4.20
2018-09-04T07:25:29.022Z,3.90
2018-09-04T07:26:28.905Z,3.90
2018-09-04T07:27:29.044Z,4.00
2018-09-04T07:28:29.036Z,4.00
2018-09-04T07:29:28.946Z,3.70
2018-09-04T07:30:28.950Z,3.90
2018-09-04T07:31:28.958Z,4.60
2018-09-04T07:32:28.971Z,4.40
2018-09-04T07:33:29.158Z,4.10
2018-09-04T07:34:29.120Z,4.00
2018-09-04T07:35:29.225Z,4.10
2018-09-04T07:36:29.067Z,3.60
2018-09-04T07:37:29.150Z,3.70
2018-09-04T07:38:29.039Z,3.50
2018-09-04T07:39:29.168Z,5.30
2018-09-04T07:40:29.153Z,3.70
2018-09-04T07:41:29.193Z,3.60
2018-09-04T07:42:29.073Z,3.80
2018-09-04T07:43:29.092Z,3.80
2018-09-04T07:44:29.097Z,3.50
2018-09-04T07:45:29.218Z,3.50
2018-09-04T07:46:29.128Z,3.20
2018-09-04T07:47:29.133Z,3.40
2018-09-04T07:48:29.146Z,3.30
2018-09-04T07:49:29.148Z,3.70
2018-09-04T07:50:29.270Z,4.00
2018-09-04T07:51:29.169Z,3.30
2018-09-04T07:52:29.181Z,3.10
2018-09-04T07:53:29.184Z,2.90
2018-09-04T07:54:29.211Z,3.50
2018-09-04T07:55:29.362Z,3.40
2018-09-04T07:56:29.353Z,3.20
2018-09-04T07:57:29.363Z,3.50
2018-09-04T07:58:29.374Z,3.70
2018-09-04T07:59:29.382Z,3.30
2018-09-04T08:00:29.420Z,3.50
2018-09-04T08:01:29.311Z,3.90
2018-09-04T08:02:29.292Z,4.00
2018-09-04T08:03:29.425Z,3.80
2018-09-04T08:04:29.432Z,4.00
2018-09-04T08:05:29.472Z,3.90
2018-09-04T08:06:29.336Z,3.90
2018-09-04T08:07:29.340Z,3.70
2018-09-04T08:08:29.361Z,4.50
2018-09-04T08:09:29.358Z,3.70
2018-09-04T08:10:29.596Z,3.60
2018-09-04T08:11:29.511Z,3.30
2018-09-04T08:12:29.520Z,3.40
2018-09-04T08:13:29.532Z,3.30
2018-09-04T08:14:29.414Z,4.00
2018-09-04T08:15:29.583Z,3.30
2018-09-04T08:16:29.474Z,3.60
2018-09-04T08:17:29.459Z,3.40
2018-09-04T08:18:29.456Z,3.90
2018-09-04T08:19:29.462Z,3.50
2018-09-04T08:20:29.827Z,3.30
2018-09-04T08:21:29.614Z,3.80
2018-09-04T08:22:29.507Z,3.20
2018-09-04T08:23:29.515Z,3.80
2018-09-04T08:24:29.524Z,3.40
2018-09-04T08:25:29.754Z,3.10
2018-09-04T08:26:29.547Z,3.20
2018-09-04T08:27:29.681Z,3.50
2018-09-04T08:28:29.557Z,3.00
2018-09-04T08:29:29.565Z,3.30
2018-09-04T08:30:29.688Z,3.40
2018-09-04T08:31:29.592Z,3.30
2018-09-04T08:32:29.735Z,5.20
2018-09-04T08:33:29.627Z,3.50
2018-09-04T08:34:29.625Z,3.40
2018-09-04T08:35:29.783Z,3.60
2018-09-04T08:36:29.777Z,4.50
2018-09-04T08:37:29.663Z,3.50
2018-09-04T08:38:29.794Z,4.30
2018-09-04T08:39:29.676Z,3.70
2018-09-04T08:40:29.817Z,3.50
2018-09-04T08:41:29.891Z,3.70
2018-09-04T08:42:29.831Z,3.90
2018-09-04T08:43:29.733Z,3.80
2018-09-04T08:44:29.854Z,3.80
2018-09-04T08:45:29.758Z,3.60
2018-09-04T08:46:29.873Z,3.70
2018-09-04T08:47:30.061Z,3.80
2018-09-04T08:48:29.901Z,3.40
2018-09-04T08:49:29.778Z,3.90
2018-09-04T08:50:29.954Z,3.90
2018-09-04T08:51:29.926Z,3.80
2018-09-04T08:52:29.964Z,3.70
2018-09-04T08:53:29.913Z,4.10
2018-09-04T08:54:29.962Z,4.20
2018-09-04T08:55:29.972Z,3.60
2018-09-04T08:56:29.977Z,3.90
2018-09-04T08:57:30.067Z,4.10
2018-09-04T08:58:29.951Z,3.40
2018-09-04T08:59:30.007Z,4.10
2018-09-04T09:00:29.929Z,3.00
2018-09-04T09:01:29.942Z,3.50
2018-09-04T09:02:30.187Z,3.20
2018-09-04T09:03:30.047Z,2.90
2018-09-04T09:04:30.060Z,3.80
2018-09-04T09:05:30.124Z,3.50
2018-09-04T09:06:30.079Z,3.80
2018-09-04T09:07:30.077Z,3.50
2018-09-04T09:08:30.098Z,2.80
2018-09-04T09:09:29.986Z,3.40
2018-09-04T09:10:29.997Z,2.90
2018-09-04T09:11:30.129Z,3.10
2018-09-04T09:12:30.131Z,3.10
2018-09-04T09:13:30.023Z,3.00
2018-09-04T09:14:30.157Z,4.10
2018-09-04T09:15:30.045Z,3.30
2018-09-04T09:16:30.065Z,3.20
2018-09-04T09:17:30.206Z,3.20
2018-09-04T09:18:30.073Z,3.10
2018-09-04T09:19:30.085Z,5.30
2018-09-04T09:20:30.096Z,3.40
2018-09-04T09:21:30.102Z,3.70
2018-09-04T09:22:30.262Z,3.60
2018-09-04T09:23:30.124Z,3.30
2018-09-04T09:24:30.142Z,3.10
2018-09-04T09:25:30.156Z,3.30
2018-09-04T09:26:30.150Z,3.40
2018-09-04T09:27:30.440Z,3.80
2018-09-04T09:28:30.189Z,3.60
2018-09-04T09:29:30.190Z,3.00
2018-09-04T09:30:30.198Z,3.20
2018-09-04T09:31:30.212Z,3.10
2018-09-04T09:32:30.363Z,2.80
2018-09-04T09:33:30.235Z,3.10
2018-09-04T09:34:30.237Z,2.80
2018-09-04T09:35:30.372Z,2.60
2018-09-04T09:36:30.423Z,2.50
2018-09-04T09:37:30.422Z,3.00
2018-09-04T09:38:30.407Z,2.50
2018-09-04T09:39:30.292Z,2.40
2018-09-04T09:40:30.291Z,2.00
2018-09-04T09:41:30.315Z,2.30
2018-09-04T09:42:30.491Z,1.90
2018-09-04T09:43:30.342Z,2.60
2018-09-04T09:44:30.341Z,2.60
2018-09-04T09:45:30.390Z,2.00
2018-09-04T09:46:30.357Z,2.30
2018-09-04T09:47:30.650Z,2.30
2018-09-04T09:48:30.404Z,2.00
2018-09-04T09:49:30.404Z,3.10
2018-09-04T09:50:30.536Z,2.50
2018-09-04T09:51:30.540Z,2.30
2018-09-04T09:52:30.722Z,2.70
2018-09-04T09:53:30.754Z,2.30
2018-09-04T09:54:30.577Z,2.40
2018-09-04T09:55:30.460Z,2.50
2018-09-04T09:56:30.544Z,2.20
2018-09-04T09:57:30.650Z,2.10
2018-09-04T09:58:30.495Z,2.50
2018-09-04T09:59:30.597Z,2.20
2018-09-04T10:00:30.525Z,2.90
2018-09-04T10:01:30.558Z,2.40
2018-09-04T10:02:30.688Z,2.60
2018-09-04T10:03:30.563Z,2.40
2018-09-04T10:04:30.565Z,2.30
2018-09-04T10:05:30.616Z,2.40
2018-09-04T10:06:30.706Z,2.60
2018-09-04T10:07:30.871Z,2.40
2018-09-04T10:08:30.631Z,2.50
2018-09-04T10:09:30.619Z,2.10
2018-09-04T10:10:30.791Z,3.70
2018-09-04T10:11:30.641Z,2.10
2018-09-04T10:12:30.806Z,3.30
2018-09-04T10:13:30.659Z,2.40
2018-09-04T10:14:30.680Z,2.40
2018-09-04T10:15:30.695Z,2.40
2018-09-04T10:16:30.709Z,3.90
2018-09-04T10:17:30.937Z,2.70
2018-09-04T10:18:30.719Z,3.80
2018-09-04T10:19:30.735Z,2.70
2018-09-04T10:20:30.750Z,3.40
2018-09-04T10:21:30.890Z,3.20
2018-09-04T10:22:30.870Z,2.70
2018-09-04T10:23:30.792Z,4.10
2018-09-04T10:24:30.799Z,2.70
2018-09-04T10:25:30.806Z,2.70
2018-09-04T10:26:30.889Z,3.00
2018-09-04T10:27:30.982Z,3.20
2018-09-04T10:28:30.846Z,3.20
2018-09-04T10:29:30.867Z,3.10
2018-09-04T10:30:30.995Z,3.50
2018-09-04T10:31:30.890Z,3.70
2018-09-04T10:32:35.394Z,3.40
2018-09-04T10:33:30.901Z,3.20
2018-09-04T10:34:31.038Z,3.00
2018-09-04T10:35:30.934Z,3.80
2018-09-04T10:36:30.935Z,3.10
2018-09-04T10:37:31.055Z,3.60
2018-09-04T10:38:30.972Z,3.50
2018-09-04T10:39:30.979Z,3.50
2018-09-04T10:40:31.030Z,4.90
2018-09-04T10:41:31.011Z,2.90
2018-09-04T10:42:31.078Z,3.60
2018-09-04T10:43:31.149Z,3.70
2018-09-04T10:44:31.053Z,3.70
2018-09-04T10:45:31.433Z,2.50
2018-09-04T10:46:31.056Z,2.40
2018-09-04T10:47:31.206Z,4.40
2018-09-04T10:48:31.223Z,3.80
2018-09-04T10:49:31.110Z,3.20
2018-09-04T10:50:31.168Z,3.10
2018-09-04T10:51:31.258Z,3.10
2018-09-04T10:52:31.162Z,2.50
2018-09-04T10:53:31.285Z,2.80
2018-09-04T10:54:31.295Z,2.60
2018-09-04T10:55:31.323Z,2.40
2018-09-04T10:56:31.195Z,2.70
2018-09-04T10:57:31.228Z,2.80
2018-09-04T10:58:31.352Z,2.50
2018-09-04T10:59:31.371Z,2.80
2018-09-04T11:00:31.352Z,3.90
2018-09-04T11:01:31.395Z,3.50
2018-09-04T11:02:31.287Z,3.10
2018-09-04T11:03:31.422Z,4.90
2018-09-04T11:04:31.310Z,3.00
2018-09-04T11:05:31.545Z,2.90
2018-09-04T11:06:31.356Z,2.70
2018-09-04T11:07:31.362Z,3.10
2018-09-04T11:08:31.408Z,2.90
2018-09-04T11:09:31.487Z,3.30
2018-09-04T11:10:31.445Z,3.10
2018-09-04T11:11:31.528Z,3.20
2018-09-04T11:12:31.693Z,2.90
2018-09-04T11:13:31.558Z,2.90
2018-09-04T11:14:31.574Z,2.90
2018-09-04T11:15:31.588Z,2.70
2018-09-04T11:16:31.484Z,3.00
2018-09-04T11:17:31.661Z,2.50
2018-09-04T11:18:31.612Z,2.60
2018-09-04T11:19:31.517Z,3.10
2018-09-04T11:20:31.534Z,3.10
2018-09-04T11:21:31.590Z,5.00
2018-09-04T11:22:31.578Z,3.10
2018-09-04T11:23:31.779Z,2.70
2018-09-04T11:24:31.588Z,2.80
2018-09-04T11:25:31.639Z,3.60
2018-09-04T11:26:31.742Z,4.00
2018-09-04T11:27:31.627Z,3.60
2018-09-04T11:28:31.906Z,2.60
2018-09-04T11:29:31.671Z,3.00
2018-09-04T11:30:31.711Z,3.00
2018-09-04T11:31:31.822Z,2.80
2018-09-04T11:32:31.836Z,4.50
2018-09-04T11:33:31.999Z,4.80
2018-09-04T11:34:31.751Z,4.20
2018-09-04T11:35:31.749Z,4.10
2018-09-04T11:36:31.772Z,3.20
2018-09-04T11:37:31.806Z,3.50
2018-09-04T11:38:31.965Z,3.70
2018-09-04T11:39:31.826Z,2.50
2018-09-04T11:40:31.885Z,4.60
2018-09-04T11:41:31.854Z,2.80
2018-09-04T11:42:31.865Z,3.10
2018-09-04T11:43:32.031Z,3.20
2018-09-04T11:44:31.941Z,3.40
2018-09-04T11:45:31.920Z,2.90
2018-09-04T11:46:31.931Z,2.10
2018-09-04T11:47:31.953Z,2.60
2018-09-04T11:48:36.570Z,2.70
2018-09-04T11:49:32.004Z,2.70
2018-09-04T11:50:31.998Z,2.70
2018-09-04T11:51:32.012Z,3.10
2018-09-04T11:52:32.182Z,2.70
2018-09-04T11:53:32.196Z,2.00
2018-09-04T11:54:32.060Z,2.30
2018-09-04T11:55:32.207Z,2.40
2018-09-04T11:56:32.222Z,3.30
2018-09-04T11:57:32.113Z,1.90
2018-09-04T11:58:32.385Z,2.00
2018-09-04T11:59:32.147Z,2.80
2018-09-04T12:00:32.289Z,2.60
2018-09-04T12:01:32.187Z,4.60
2018-09-04T12:02:32.205Z,3.40
2018-09-04T12:03:32.589Z,2.10
2018-09-04T12:04:32.350Z,2.30
2018-09-04T12:05:32.232Z,1.30
2018-09-04T12:06:32.385Z,1.80
2018-09-04T12:07:32.272Z,2.50
2018-09-04T12:08:32.447Z,5.40
2018-09-04T12:09:32.321Z,4.30
2018-09-04T12:10:32.323Z,2.60
2018-09-04T12:11:32.337Z,2.00
2018-09-04T12:12:32.431Z,3.00
2018-09-04T12:13:32.524Z,1.80
2018-09-04T12:14:32.517Z,2.40
2018-09-04T12:15:32.415Z,2.90
2018-09-04T12:16:32.546Z,2.70
2018-09-04T12:17:32.564Z,1.50
2018-09-04T12:18:32.605Z,1.90
2018-09-04T12:19:32.476Z,1.30
2018-09-04T12:20:32.611Z,3.20
2018-09-04T12:21:32.510Z,1.80
2018-09-04T12:22:32.512Z,1.20
2018-09-04T12:24:32.556Z,1.80
2018-09-04T12:25:32.561Z,1.90
2018-09-04T12:26:32.706Z,2.30
2018-09-04T12:27:32.873Z,1.80
2018-09-04T12:28:32.621Z,1.50
2018-09-04T12:29:32.629Z,1.20
2018-09-04T12:30:32.639Z,2.60
2018-09-04T12:31:32.657Z,3.20
2018-09-04T12:32:32.836Z,3.40
2018-09-04T12:33:32.816Z,2.10
2018-09-04T12:34:32.717Z,2.80
2018-09-04T12:35:32.846Z,2.60
2018-09-04T12:36:32.825Z,1.80
2018-09-04T12:37:32.914Z,2.50
2018-09-04T12:38:32.898Z,3.80
2018-09-04T12:39:32.913Z,3.00
2018-09-04T12:40:32.805Z,2.70
2018-09-04T12:41:32.832Z,2.70
2018-09-04T12:42:33.182Z,2.90
2018-09-04T12:43:32.862Z,4.40
2018-09-04T12:44:33.006Z,2.90
2018-09-04T12:45:32.890Z,1.40
2018-09-04T12:46:32.944Z,1.80
2018-09-04T12:47:33.071Z,3.80
2018-09-04T12:48:33.237Z,2.90
2018-09-04T12:49:32.952Z,2.00
2018-09-04T12:50:32.987Z,2.40
2018-09-04T12:51:33.120Z,2.30
2018-09-04T12:52:33.008Z,1.60
2018-09-04T12:53:33.307Z,2.60
2018-09-04T12:54:33.193Z,1.40
2018-09-04T12:55:33.078Z,2.70
2018-09-04T12:56:33.207Z,2.40
2018-09-04T12:57:33.095Z,4.50
2018-09-04T12:58:33.262Z,2.30
2018-09-04T12:59:33.126Z,2.50
2018-09-04T13:00:33.272Z,7.40
2018-09-04T13:01:33.181Z,1.70
2018-09-04T13:02:33.307Z,1.40
2018-09-04T13:03:33.449Z,4.70
2018-09-04T13:04:33.262Z,3.00
2018-09-04T13:05:33.356Z,2.80
2018-09-04T13:06:33.254Z,1.90
2018-09-04T13:07:33.268Z,1.40
2018-09-04T13:08:33.491Z,2.60
2018-09-04T13:09:33.302Z,2.80
2018-09-04T13:10:33.321Z,2.80
2018-09-04T13:11:33.346Z,3.30
2018-09-04T13:12:33.362Z,1.20
2018-09-04T13:13:33.597Z,3.60
2018-09-04T13:14:33.466Z,3.00
2018-09-04T13:15:33.418Z,2.10
2018-09-04T13:16:33.436Z,1.60
2018-09-04T13:17:33.566Z,1.40
2018-09-04T13:18:33.708Z,5.30
2018-09-04T13:19:33.489Z,1.00